Time;durP1;ratioP1;P1;durP2;ratioP2;P2;SDS_P1;SDS_P2;PMS_P1;PMS_P2;Temp;Humidity;BMP_temperature;BMP_pressure;BME280_temperature;BME280_humidity;BME280_pressure;Samples;Min_cycle;Max_cycle;Signal;HPM_P1;HPM_P2
2021/03/13 00:01:28;;;;;;;25.63;6.97;;;4.00;99.90;;;;;;4999914;28;20037;-70
2021/03/13 00:03:54;;;;;;;25.25;6.45;;;4.00;99.90;;;;;;4997571;28;20022;-70
2021/03/13 00:06:20;;;;;;;24.67;7.28;;;4.00;99.90;;;;;;4997450;28;20048;-70
2021/03/13 00:08:46;;;;;;;29.55;6.00;;;4.00;99.90;;;;;;4997065;28;20036;-70
2021/03/13 00:11:12;;;;;;;19.80;6.07;;;4.00;99.90;;;;;;4998301;28;20076;-70
2021/03/13 00:13:39;;;;;;;30.70;7.13;;;3.90;99.90;;;;;;4993754;28;20036;-70
2021/03/13 00:16:06;;;;;;;25.25;6.65;;;3.90;99.90;;;;;;4997389;28;20533;-69
2021/03/13 00:18:34;;;;;;;26.00;6.82;;;3.90;99.90;;;;;;4997397;28;20493;-70
2021/03/13 00:21:01;;;;;;;36.60;6.25;;;3.90;99.90;;;;;;4997104;28;20401;-70
2021/03/13 00:23:27;;;;;;;38.28;6.78;;;3.90;99.90;;;;;;4999009;28;20041;-70
2021/03/13 00:25:53;;;;;;;32.88;7.07;;;4.00;99.90;;;;;;4998061;28;20049;-70
2021/03/13 00:28:18;;;;;;;35.55;7.57;;;4.10;99.90;;;;;;4998916;28;20040;-70
2021/03/13 00:30:46;;;;;;;40.15;8.05;;;4.10;99.90;;;;;;4999983;28;20551;-70
2021/03/13 00:33:13;;;;;;;36.42;8.35;;;4.20;99.90;;;;;;4996547;28;20431;-70
2021/03/13 00:35:41;;;;;;;29.80;8.38;;;4.20;99.90;;;;;;4997936;28;20179;-70
2021/03/13 00:38:07;;;;;;;38.17;8.13;;;4.20;99.90;;;;;;4997374;28;20658;-70
2021/03/13 00:40:35;;;;;;;29.65;8.27;;;4.30;99.90;;;;;;4998563;28;20132;-70
2021/03/13 00:43:02;;;;;;;41.55;7.57;;;4.30;99.90;;;;;;4998059;28;20037;-70
2021/03/13 00:45:28;;;;;;;33.83;6.85;;;4.40;99.90;;;;;;4998441;28;20152;-70
2021/03/13 00:47:56;;;;;;;30.67;7.20;;;4.50;99.90;;;;;;4997892;28;20552;-70
2021/03/13 00:50:24;;;;;;;51.65;10.93;;;4.50;99.90;;;;;;4998000;28;20116;-70
2021/03/13 00:52:51;;;;;;;53.20;9.45;;;4.60;99.90;;;;;;4998133;28;20056;-70
2021/03/13 00:55:17;;;;;;;37.47;8.38;;;4.60;99.90;;;;;;4997131;28;20034;-70
2021/03/13 00:57:43;;;;;;;37.58;8.95;;;4.70;99.90;;;;;;4997986;28;20038;-70
2021/03/13 01:00:14;;;;;;;36.38;7.68;;;4.70;99.90;;;;;;4997700;28;20033;-70
2021/03/13 01:02:40;;;;;;;33.88;9.27;;;4.70;99.90;;;;;;5000713;28;20625;-70
2021/03/13 01:05:07;;;;;;;41.85;8.73;;;4.80;99.90;;;;;;4998988;28;20106;-70
2021/03/13 01:07:34;;;;;;;45.40;9.95;;;4.80;99.90;;;;;;4998911;28;20033;-70
2021/03/13 01:10:01;;;;;;;52.95;8.70;;;4.80;99.90;;;;;;4999860;28;20193;-70
2021/03/13 01:12:26;;;;;;;43.75;8.70;;;4.80;99.90;;;;;;4999124;28;20033;-70
2021/03/13 01:14:52;;;;;;;39.08;8.18;;;4.90;99.90;;;;;;4999270;28;20076;-70
2021/03/13 01:17:18;;;;;;;31.00;7.53;;;4.80;99.90;;;;;;4998386;28;20034;-70
2021/03/13 01:19:44;;;;;;;35.22;9.18;;;4.90;99.90;;;;;;4998174;28;20061;-70
2021/03/13 01:22:10;;;;;;;38.97;7.20;;;4.90;99.90;;;;;;5000379;28;20071;-70
2021/03/13 01:24:40;;;;;;;42.33;6.63;;;4.80;99.90;;;;;;4999784;28;20045;-70
2021/03/13 01:27:08;;;;;;;35.00;6.15;;;4.80;99.90;;;;;;4999387;28;20034;-70
2021/03/13 01:29:34;;;;;;;36.42;6.82;;;4.90;99.90;;;;;;4999687;28;20045;-70
2021/03/13 01:32:03;;;;;;;34.85;7.72;;;4.90;99.90;;;;;;4999084;28;20034;-71
2021/03/13 01:34:31;;;;;;;48.20;8.05;;;4.80;99.90;;;;;;4999402;28;20038;-70
2021/03/13 01:36:58;;;;;;;33.45;7.07;;;4.80;99.90;;;;;;4998435;28;20498;-70
2021/03/13 01:39:24;;;;;;;42.75;7.07;;;4.80;99.90;;;;;;4999020;28;20072;-70
2021/03/13 01:41:49;;;;;;;31.75;7.07;;;4.80;99.90;;;;;;4998141;28;20038;-70
2021/03/13 01:44:16;;;;;;;32.67;6.22;;;4.80;99.90;;;;;;4997660;28;20421;-70
2021/03/13 01:46:42;;;;;;;35.47;6.68;;;4.80;99.90;;;;;;4997818;28;20025;-70
2021/03/13 01:49:16;;;;;;;39.50;5.75;;;4.80;99.90;;;;;;5002641;28;20076;-70
2021/03/13 01:51:42;;;;;;;32.47;5.15;;;4.70;99.90;;;;;;5001434;28;20030;-70
2021/03/13 01:54:08;;;;;;;27.40;6.47;;;4.70;99.90;;;;;;5002007;28;20438;-70
2021/03/13 01:56:36;;;;;;;34.90;6.20;;;4.60;99.90;;;;;;5001009;28;20604;-70
2021/03/13 01:59:02;;;;;;;31.58;5.75;;;4.60;99.90;;;;;;4999922;28;20034;-70
2021/03/13 02:01:28;;;;;;;37.55;6.97;;;4.60;99.90;;;;;;5001504;28;20073;-70
2021/03/13 02:03:54;;;;;;;36.50;6.22;;;4.50;99.90;;;;;;4999523;28;20506;-70
2021/03/13 02:06:20;;;;;;;39.47;6.25;;;4.50;99.90;;;;;;5000910;28;20042;-70
2021/03/13 02:09:03;;;;;;;32.13;5.07;;;4.50;99.90;;;;;;4997880;28;20030;-70
2021/03/13 02:11:35;;;;;;;34.97;6.40;;;4.40;99.90;;;;;;5000560;28;20343;-70
2021/03/13 02:14:23;;;;;;;33.70;5.97;;;4.40;99.90;;;;;;5000924;28;20084;-70
2021/03/13 02:16:55;;;;;;;49.70;7.35;;;4.30;99.90;;;;;;5000638;28;20078;-70
2021/03/13 02:19:36;;;;;;;37.50;5.80;;;4.30;99.90;;;;;;4996688;28;20042;-70
2021/03/13 02:22:06;;;;;;;37.50;5.85;;;4.30;99.90;;;;;;5001240;28;20037;-70
2021/03/13 02:25:05;;;;;;;32.33;6.00;;;4.40;99.90;;;;;;5000678;28;20149;-70
2021/03/13 02:27:42;;;;;;;35.88;6.15;;;4.30;99.90;;;;;;5001136;28;20045;-70
2021/03/13 02:30:13;;;;;;;42.58;5.88;;;4.30;99.90;;;;;;4998666;28;20034;-70
2021/03/13 02:32:59;;;;;;;31.10;6.70;;;4.30;99.90;;;;;;5000289;28;20034;-70
2021/03/13 02:35:30;;;;;;;41.85;5.85;;;4.30;99.90;;;;;;5000962;28;20030;-70
2021/03/13 02:38:02;;;;;;;32.50;5.68;;;4.30;99.90;;;;;;4999493;28;20057;-70
2021/03/13 02:40:29;;;;;;;36.97;5.95;;;4.40;99.90;;;;;;5000221;28;20033;-70
2021/03/13 02:43:00;;;;;;;31.23;5.32;;;4.30;99.90;;;;;;5000870;28;20037;-70
2021/03/13 02:45:33;;;;;;;33.22;5.80;;;4.30;99.90;;;;;;5000060;28;20049;-70
2021/03/13 02:48:02;;;;;;;30.05;5.53;;;4.30;99.90;;;;;;5000394;28;20132;-70
2021/03/13 02:50:30;;;;;;;33.13;6.82;;;4.30;99.90;;;;;;4998167;28;20064;-70
2021/03/13 02:52:57;;;;;;;32.15;5.78;;;4.30;99.90;;;;;;4999025;28;20501;-70
2021/03/13 02:55:25;;;;;;;30.98;6.03;;;4.30;99.90;;;;;;4998685;28;20077;-70
2021/03/13 02:57:54;;;;;;;36.33;6.45;;;4.30;99.90;;;;;;4999473;28;20034;-70
2021/03/13 03:00:22;;;;;;;38.58;5.43;;;4.20;99.90;;;;;;4999360;28;20030;-70
2021/03/13 03:02:56;;;;;;;34.55;4.13;;;4.20;99.90;;;;;;5000803;28;20029;-70
2021/03/13 03:05:25;;;;;;;33.20;7.00;;;4.20;99.90;;;;;;5000111;28;20045;-70
2021/03/13 03:07:53;;;;;;;31.33;4.23;;;4.10;99.90;;;;;;4999490;28;20477;-70
2021/03/13 03:10:23;;;;;;;29.83;6.15;;;4.00;99.90;;;;;;4999602;28;20108;-70
2021/03/13 03:12:49;;;;;;;36.00;5.68;;;4.10;99.90;;;;;;4999403;28;20026;-70
2021/03/13 03:15:17;;;;;;;28.05;4.47;;;4.00;99.90;;;;;;4999694;28;20120;-70
2021/03/13 03:17:45;;;;;;;35.58;5.40;;;3.90;99.90;;;;;;5000094;28;20034;-70
2021/03/13 03:20:12;;;;;;;31.17;5.57;;;3.90;99.90;;;;;;5001570;28;20132;-70
2021/03/13 03:22:39;;;;;;;36.17;4.97;;;3.80;99.90;;;;;;4999313;28;20100;-70
2021/03/13 03:25:07;;;;;;;45.33;9.38;;;3.80;99.90;;;;;;4999639;28;20082;-70
2021/03/13 03:27:34;;;;;;;36.80;5.60;;;3.70;99.90;;;;;;4998736;28;20024;-70
2021/03/13 03:30:01;;;;;;;40.58;5.32;;;3.70;99.90;;;;;;5000198;28;20038;-70
2021/03/13 03:32:27;;;;;;;34.28;5.25;;;3.70;99.90;;;;;;4998435;28;20476;-70
2021/03/13 03:34:53;;;;;;;30.83;6.68;;;3.60;99.90;;;;;;4998696;28;20033;-70
2021/03/13 03:37:19;;;;;;;39.58;7.68;;;3.50;99.90;;;;;;4998884;28;20042;-70
2021/03/13 03:39:44;;;;;;;38.13;5.70;;;3.50;99.90;;;;;;4999786;28;20310;-70
2021/03/13 03:42:13;;;;;;;34.38;5.88;;;3.40;99.90;;;;;;4998494;28;20034;-70
2021/03/13 03:44:45;;;;;;;35.05;6.40;;;3.40;99.90;;;;;;4997111;28;20497;-70
2021/03/13 03:47:11;;;;;;;28.08;5.65;;;3.40;99.90;;;;;;4997100;28;20417;-70
2021/03/13 03:49:41;;;;;;;25.27;5.30;;;3.30;99.90;;;;;;4999374;28;20036;-70
2021/03/13 03:52:11;;;;;;;21.83;4.75;;;3.30;99.90;;;;;;4998424;28;20084;-70
2021/03/13 03:54:38;;;;;;;27.27;4.90;;;3.30;99.90;;;;;;5000465;28;20322;-70
2021/03/13 03:57:10;;;;;;;29.13;5.68;;;3.30;99.90;;;;;;4996083;28;20037;-70
2021/03/13 03:59:38;;;;;;;23.40;5.05;;;3.20;99.90;;;;;;4998818;28;20469;-70
2021/03/13 04:02:04;;;;;;;31.65;4.80;;;3.20;99.90;;;;;;4998360;28;20427;-70
2021/03/13 04:04:32;;;;;;;48.28;5.15;;;3.20;99.90;;;;;;4998113;28;20030;-70
2021/03/13 04:06:58;;;;;;;30.40;6.03;;;3.20;99.90;;;;;;4999023;28;20032;-70
2021/03/13 04:09:27;;;;;;;32.88;5.40;;;3.20;99.90;;;;;;4996863;28;20518;-70
2021/03/13 04:11:54;;;;;;;42.70;5.65;;;3.20;99.90;;;;;;4998294;28;20026;-70
2021/03/13 04:14:21;;;;;;;31.20;6.03;;;3.20;99.90;;;;;;4998634;28;20076;-70
2021/03/13 04:16:49;;;;;;;32.42;4.93;;;3.20;99.90;;;;;;4998129;28;20044;-70
2021/03/13 04:19:15;;;;;;;49.20;6.22;;;3.10;99.90;;;;;;4997289;28;20045;-70
2021/03/13 04:21:41;;;;;;;29.13;5.47;;;3.10;99.90;;;;;;4999037;28;20044;-70
2021/03/13 04:24:11;;;;;;;31.55;5.20;;;3.10;99.90;;;;;;4998167;28;20033;-70
2021/03/13 04:26:38;;;;;;;30.88;5.93;;;3.10;99.90;;;;;;4997330;28;20128;-70
2021/03/13 04:29:05;;;;;;;35.15;5.00;;;3.10;99.90;;;;;;4998745;28;20064;-70
2021/03/13 04:31:32;;;;;;;35.50;6.10;;;3.00;99.90;;;;;;4997645;28;20374;-70
2021/03/13 04:34:00;;;;;;;43.95;7.82;;;3.00;99.90;;;;;;4997820;28;20034;-70
2021/03/13 04:36:28;;;;;;;40.35;5.75;;;2.90;99.90;;;;;;4998048;28;20034;-70
2021/03/13 04:38:57;;;;;;;32.10;4.75;;;2.90;99.90;;;;;;4997650;28;20029;-70
2021/03/13 04:41:25;;;;;;;28.67;5.50;;;2.80;99.90;;;;;;4998009;28;20490;-70
2021/03/13 04:43:52;;;;;;;43.97;8.55;;;2.80;99.90;;;;;;4997894;28;20065;-70
2021/03/13 04:46:20;;;;;;;29.58;5.35;;;2.70;99.90;;;;;;4989037;28;20037;-70
2021/03/13 04:48:46;;;;;;;28.92;4.80;;;2.70;99.90;;;;;;4996620;28;20030;-70
2021/03/13 04:51:14;;;;;;;28.67;5.43;;;2.70;99.90;;;;;;4996862;28;20030;-70
2021/03/13 04:53:41;;;;;;;36.67;7.05;;;2.70;99.90;;;;;;4996196;28;20497;-70
2021/03/13 04:56:06;;;;;;;40.08;5.60;;;2.80;99.90;;;;;;4999241;28;20439;-70
2021/03/13 04:58:34;;;;;;;33.00;5.57;;;2.80;99.90;;;;;;4996492;28;20143;-70
2021/03/13 05:01:00;;;;;;;34.05;5.65;;;2.80;99.90;;;;;;4998040;28;20017;-70
2021/03/13 05:03:26;;;;;;;32.72;5.40;;;2.80;99.90;;;;;;4996171;28;20033;-70
2021/03/13 05:05:52;;;;;;;32.40;6.00;;;2.70;99.90;;;;;;4997735;28;20050;-70
2021/03/13 05:08:18;;;;;;;38.28;6.38;;;2.80;99.90;;;;;;4996772;28;20460;-70
2021/03/13 05:10:44;;;;;;;38.85;6.65;;;2.70;99.90;;;;;;4998090;28;20037;-70
2021/03/13 05:13:10;;;;;;;28.83;5.72;;;2.80;99.90;;;;;;4997730;28;20163;-70
2021/03/13 05:15:35;;;;;;;32.63;5.43;;;2.80;99.90;;;;;;4997483;28;20513;-70
2021/03/13 05:18:01;;;;;;;38.80;6.07;;;2.80;99.90;;;;;;4996112;28;20069;-70
2021/03/13 05:20:27;;;;;;;39.17;6.18;;;2.90;99.90;;;;;;4996710;28;20041;-70
2021/03/13 05:22:53;;;;;;;42.08;6.95;;;2.90;99.90;;;;;;4996911;28;20030;-70
2021/03/13 05:25:19;;;;;;;32.40;5.40;;;2.90;99.90;;;;;;4996695;28;20670;-70
2021/03/13 05:27:45;;;;;;;33.58;5.40;;;2.80;99.90;;;;;;4995725;28;20147;-71
2021/03/13 05:30:13;;;;;;;40.60;6.97;;;2.70;99.90;;;;;;4998277;28;20029;-70
2021/03/13 05:32:39;;;;;;;26.75;5.85;;;2.60;99.90;;;;;;4995043;28;20034;-70
2021/03/13 05:35:08;;;;;;;37.50;6.45;;;2.60;99.90;;;;;;4996595;28;20033;-70
2021/03/13 05:37:34;;;;;;;27.40;4.80;;;2.50;99.90;;;;;;4997428;28;20112;-70
2021/03/13 05:40:00;;;;;;;42.25;6.68;;;2.50;99.90;;;;;;4996926;28;20358;-70
2021/03/13 05:42:27;;;;;;;36.72;6.97;;;2.60;99.90;;;;;;4993764;28;20276;-70
2021/03/13 05:44:55;;;;;;;25.52;5.78;;;2.60;99.90;;;;;;4996285;28;20045;-70
2021/03/13 05:47:22;;;;;;;33.80;5.90;;;2.60;99.90;;;;;;4995608;28;20041;-70
2021/03/13 05:50:03;;;;;;;31.25;8.05;;;2.60;99.90;;;;;;4995726;28;20370;-70
2021/03/13 05:52:34;;;;;;;50.28;9.55;;;2.80;99.90;;;;;;4995299;28;20068;-70
2021/03/13 05:55:01;;;;;;;39.80;9.38;;;3.10;99.90;;;;;;4996293;28;20072;-70
2021/03/13 05:57:27;;;;;;;57.05;9.73;;;3.10;99.90;;;;;;4993541;28;20026;-70
2021/03/13 05:59:55;;;;;;;62.58;10.75;;;3.20;99.90;;;;;;4997178;28;20501;-70
2021/03/13 06:02:21;;;;;;;62.17;11.15;;;3.40;99.90;;;;;;4994631;28;20030;-70
2021/03/13 06:04:50;;;;;;;54.63;10.73;;;3.50;99.90;;;;;;4992172;28;20045;-70
2021/03/13 06:07:20;;;;;;;52.38;10.60;;;3.50;99.90;;;;;;4993956;28;20032;-70
2021/03/13 06:09:49;;;;;;;;;;;3.60;99.90;;;;;;4996009;28;20064;-70
2021/03/13 06:12:15;;;;;;;57.38;12.00;;;3.70;99.90;;;;;;4997215;28;19913;-70
2021/03/13 06:14:41;;;;;;;66.28;12.73;;;3.80;99.90;;;;;;4993545;28;20056;-70
2021/03/13 06:17:07;;;;;;;60.33;11.90;;;3.80;99.90;;;;;;4993475;28;20025;-70
2021/03/13 06:19:54;;;;;;;60.92;13.25;;;3.90;99.90;;;;;;4997392;28;20501;-70
2021/03/13 06:22:39;;;;;;;46.75;11.95;;;4.00;99.90;;;;;;4995025;28;20790;-70
2021/03/13 06:25:25;;;;;;;66.60;12.85;;;4.00;99.90;;;;;;4997593;28;20053;-70
2021/03/13 06:28:02;;;;;;;60.78;12.57;;;4.10;99.90;;;;;;4992233;28;20766;-70
2021/03/13 06:30:31;;;;;;;69.70;13.25;;;4.10;99.90;;;;;;4993958;28;20069;-70
2021/03/13 06:32:57;;;;;;;69.63;15.93;;;4.20;99.90;;;;;;4992406;28;20374;-70
2021/03/13 06:35:24;;;;;;;56.45;12.82;;;4.30;99.90;;;;;;4996129;28;20568;-70
2021/03/13 06:37:53;;;;;;;60.28;12.40;;;4.30;99.90;;;;;;5000003;28;20041;-70
2021/03/13 06:40:27;;;;;;;57.80;12.43;;;4.30;99.90;;;;;;4996603;28;20025;-70
2021/03/13 06:42:54;;;;;;;52.42;12.55;;;4.40;99.90;;;;;;4999260;28;20029;-70
2021/03/13 06:45:22;;;;;;;72.82;14.35;;;4.40;99.90;;;;;;5001303;28;20047;-70
2021/03/13 06:47:49;;;;;;;64.68;14.27;;;4.40;99.90;;;;;;4999798;28;20022;-70
2021/03/13 06:50:18;;;;;;;58.33;14.02;;;4.50;99.90;;;;;;4997386;28;20042;-70
2021/03/13 06:52:50;;;;;;;57.17;15.23;;;4.50;99.90;;;;;;4998667;28;20054;-70
2021/03/13 06:55:19;;;;;;;58.78;12.88;;;4.50;99.90;;;;;;4997894;28;20143;-70
2021/03/13 06:57:47;;;;;;;52.30;13.13;;;4.60;99.90;;;;;;4999618;28;20208;-70
2021/03/13 07:00:28;;;;;;;57.47;14.55;;;4.60;99.90;;;;;;4996239;28;20768;-71
2021/03/13 07:03:05;;;;;;;56.67;13.02;;;4.60;99.90;;;;;;4996486;28;20124;-70
2021/03/13 07:05:31;;;;;;;43.35;12.23;;;4.60;99.90;;;;;;4999816;28;20046;-70
2021/03/13 07:07:57;;;;;;;54.67;14.05;;;4.60;99.90;;;;;;4999861;28;20036;-70
2021/03/13 07:10:27;;;;;;;50.88;14.20;;;4.70;99.90;;;;;;4998926;28;20037;-70
2021/03/13 07:12:53;;;;;;;58.75;16.92;;;4.70;99.90;;;;;;4994909;28;20187;-70
2021/03/13 07:15:25;;;;;;;51.28;15.23;;;4.70;99.90;;;;;;4998614;28;20399;-70
2021/03/13 07:17:59;;;;;;;49.13;13.98;;;4.70;99.90;;;;;;4999223;28;20129;-70
2021/03/13 07:20:34;;;;;;;61.53;14.55;;;4.70;99.90;;;;;;4998963;28;20036;-70
2021/03/13 07:23:03;;;;;;;59.22;13.55;;;4.80;99.90;;;;;;4998778;28;20035;-70
2021/03/13 07:25:29;;;;;;;58.58;13.35;;;4.70;99.90;;;;;;4996980;28;20587;-70
2021/03/13 07:27:57;;;;;;;57.20;15.95;;;4.80;99.90;;;;;;4995010;28;20033;-70
2021/03/13 07:30:25;;;;;;;66.47;16.33;;;4.80;99.90;;;;;;4995972;28;20431;-70
2021/03/13 07:32:58;;;;;;;69.90;17.27;;;4.80;99.90;;;;;;4997540;28;20446;-70
2021/03/13 07:35:27;;;;;;;56.03;15.45;;;4.80;99.90;;;;;;4998730;28;20038;-70
2021/03/13 07:37:56;;;;;;;49.90;13.20;;;4.90;99.90;;;;;;4991842;28;20034;-70
2021/03/13 07:40:23;;;;;;;44.58;14.38;;;4.90;99.90;;;;;;4995306;28;20045;-70
2021/03/13 07:42:50;;;;;;;54.95;14.40;;;4.90;99.90;;;;;;4995726;28;20041;-70
2021/03/13 07:45:18;;;;;;;58.40;14.65;;;4.90;99.90;;;;;;4995883;28;20033;-70
2021/03/13 07:47:44;;;;;;;60.58;14.75;;;4.90;99.90;;;;;;4995798;28;20037;-70
2021/03/13 07:50:12;;;;;;;54.25;14.63;;;5.00;99.90;;;;;;4998983;28;20389;-70
2021/03/13 07:52:39;;;;;;;55.40;14.40;;;5.00;99.90;;;;;;4997095;28;20026;-70
2021/03/13 07:55:14;;;;;;;48.00;12.88;;;5.00;99.90;;;;;;4998553;28;20029;-70
2021/03/13 07:57:45;;;;;;;63.00;14.68;;;5.10;99.90;;;;;;4995382;28;20022;-70
2021/03/13 08:00:12;;;;;;;53.35;15.00;;;5.00;99.90;;;;;;4994598;28;20060;-70
2021/03/13 08:02:42;;;;;;;50.65;13.55;;;5.10;99.90;;;;;;4990778;28;20034;-70
2021/03/13 08:05:18;;;;;;;41.85;12.77;;;5.00;99.90;;;;;;4996860;28;20044;-70
2021/03/13 08:07:59;;;;;;;36.70;11.55;;;5.00;99.90;;;;;;5000811;28;20374;-70
2021/03/13 08:10:47;;;;;;;42.92;12.85;;;5.00;99.90;;;;;;4999226;28;20034;-70
2021/03/13 08:13:26;;;;;;;27.67;9.82;;;5.00;99.90;;;;;;4998011;28;20056;-69
2021/03/13 08:16:21;;;;;;;36.63;11.00;;;4.90;99.90;;;;;;4996930;28;20022;-70
2021/03/13 08:18:48;;;;;;;32.17;9.98;;;4.90;99.90;;;;;;4998535;28;20489;-70
2021/03/13 08:21:20;;;;;;;35.33;10.65;;;4.90;99.90;;;;;;4998509;28;20103;-70
2021/03/13 08:23:55;;;;;;;36.75;11.23;;;4.90;99.90;;;;;;5000650;28;20073;-70
2021/03/13 08:26:38;;;;;;;38.80;12.15;;;4.90;99.90;;;;;;5000737;28;20038;-70
2021/03/13 08:29:06;;;;;;;44.97;14.07;;;4.90;99.90;;;;;;4998633;28;20026;-69
2021/03/13 08:31:32;;;;;;;43.92;13.70;;;5.00;99.90;;;;;;4997291;28;20338;-69
2021/03/13 08:34:01;;;;;;;38.78;14.80;;;4.90;99.90;;;;;;4997359;28;20026;-69
2021/03/13 08:36:40;;;;;;;41.33;13.98;;;5.00;99.90;;;;;;4994719;28;20104;-70
2021/03/13 08:39:11;;;;;;;36.70;14.10;;;4.90;99.90;;;;;;4997017;28;20067;-69
2021/03/13 08:41:45;;;;;;;40.47;14.23;;;4.90;99.90;;;;;;4997477;28;20018;-69
2021/03/13 08:44:26;;;;;;;46.60;13.90;;;5.00;99.90;;;;;;4996458;28;20367;-69
2021/03/13 08:47:07;;;;;;;49.80;16.35;;;5.00;99.90;;;;;;4997875;28;20037;-69
2021/03/13 08:49:34;;;;;;;39.03;15.07;;;5.00;99.90;;;;;;4997452;28;20070;-70
2021/03/13 08:52:09;;;;;;;50.75;15.75;;;5.00;99.90;;;;;;4996023;28;20029;-69
2021/03/13 08:54:41;;;;;;;41.53;16.05;;;5.00;99.90;;;;;;4994407;28;20297;-69
2021/03/13 08:57:10;;;;;;;32.67;13.65;;;5.10;99.90;;;;;;4997486;28;20047;-69
2021/03/13 08:59:38;;;;;;;36.20;13.98;;;5.10;99.90;;;;;;4996974;28;20034;-69
2021/03/13 09:02:14;;;;;;;35.60;13.88;;;5.00;99.90;;;;;;4996568;28;20084;-69
2021/03/13 09:04:43;;;;;;;37.30;13.90;;;5.10;99.90;;;;;;4992878;28;20022;-69
2021/03/13 09:07:10;;;;;;;39.22;13.68;;;5.10;99.90;;;;;;4993051;28;20041;-69
2021/03/13 09:09:38;;;;;;;31.33;12.98;;;5.10;99.90;;;;;;4996925;28;20440;-69
2021/03/13 09:12:10;;;;;;;24.88;10.43;;;5.10;99.90;;;;;;4997059;28;20038;-69
2021/03/13 09:14:42;;;;;;;32.20;11.75;;;5.10;99.90;;;;;;4998217;28;20503;-69
2021/03/13 09:17:15;;;;;;;32.08;13.20;;;5.10;99.90;;;;;;4997300;28;20042;-69
2021/03/13 09:19:42;;;;;;;38.15;14.15;;;5.20;99.90;;;;;;4997262;28;20123;-69
2021/03/13 09:22:14;;;;;;;25.92;11.57;;;5.10;99.90;;;;;;4997192;28;20080;-69
2021/03/13 09:24:41;;;;;;;21.73;9.90;;;5.20;99.90;;;;;;4995319;28;20468;-69
2021/03/13 09:27:07;;;;;;;27.33;11.93;;;5.10;99.90;;;;;;4997934;28;20034;-69
2021/03/13 09:29:42;;;;;;;26.23;10.55;;;5.20;99.90;;;;;;4995056;28;20040;-69
2021/03/13 09:32:14;;;;;;;20.95;9.98;;;5.20;99.90;;;;;;4997351;28;20038;-69
2021/03/13 09:34:44;;;;;;;18.98;10.40;;;5.20;99.90;;;;;;4997398;28;20026;-69
2021/03/13 09:37:11;;;;;;;28.15;10.40;;;5.30;99.90;;;;;;4995632;28;20041;-69
2021/03/13 09:39:38;;;;;;;25.17;11.63;;;5.30;99.90;;;;;;4997552;28;20572;-69
2021/03/13 09:42:16;;;;;;;25.30;12.55;;;5.30;99.90;;;;;;4997913;28;20504;-69
2021/03/13 09:44:46;;;;;;;25.23;14.10;;;5.20;99.90;;;;;;4996551;28;20030;-69
2021/03/13 09:47:30;;;;;;;;;;;5.20;99.90;;;;;;4999046;28;20041;-69
2021/03/13 09:49:58;;;;;;;13.02;6.32;;;5.20;99.90;;;;;;4998137;28;20401;-68
2021/03/13 09:52:29;;;;;;;17.17;6.78;;;5.10;99.90;;;;;;4996689;28;20022;-68
2021/03/13 09:55:19;;;;;;;19.95;8.32;;;5.00;99.90;;;;;;4991191;28;20045;-69
2021/03/13 09:57:57;;;;;;;20.75;7.57;;;5.10;99.90;;;;;;4995471;28;20447;-70
2021/03/13 10:00:24;;;;;;;13.00;7.35;;;5.00;99.90;;;;;;4996615;28;20095;-69
2021/03/13 10:02:52;;;;;;;18.75;8.38;;;4.90;99.90;;;;;;4997576;28;20029;-69
2021/03/13 10:05:20;;;;;;;18.05;7.32;;;5.00;99.90;;;;;;4992973;28;20134;-69
2021/03/13 10:07:48;;;;;;;15.95;8.50;;;4.90;99.90;;;;;;4994935;28;20056;-68
2021/03/13 10:10:19;;;;;;;18.55;8.82;;;4.90;99.90;;;;;;4994160;28;20188;-68
2021/03/13 10:12:51;;;;;;;10.73;6.43;;;4.90;99.90;;;;;;4998238;28;20022;-69
2021/03/13 10:15:17;;;;;;;12.70;5.55;;;4.80;99.90;;;;;;4997787;28;20036;-67
2021/03/13 10:18:02;;;;;;;11.77;5.03;;;4.70;99.90;;;;;;4999717;28;20022;-68
2021/03/13 10:20:31;;;;;;;8.80;4.80;;;4.70;99.90;;;;;;4997353;28;20025;-68
2021/03/13 10:23:10;;;;;;;9.15;4.35;;;4.60;99.90;;;;;;5013179;28;20026;-68
2021/03/13 10:25:38;;;;;;;9.73;5.75;;;4.60;99.90;;;;;;4999314;28;20037;-68
2021/03/13 10:28:13;;;;;;;15.68;6.65;;;4.50;99.90;;;;;;5001508;28;20072;-69
2021/03/13 10:30:42;;;;;;;9.90;5.50;;;4.50;99.90;;;;;;5000962;28;20561;-68
2021/03/13 10:33:08;;;;;;;10.45;5.60;;;4.50;99.90;;;;;;5000702;28;20029;-68
2021/03/13 10:35:35;;;;;;;9.82;5.55;;;4.60;99.90;;;;;;5000637;28;20033;-68
2021/03/13 10:38:20;;;;;;;11.27;5.65;;;4.50;99.90;;;;;;4999129;28;20032;-69
2021/03/13 10:40:47;;;;;;;7.93;4.50;;;4.40;99.90;;;;;;5000793;28;20029;-68
2021/03/13 10:43:31;;;;;;;10.57;4.90;;;4.30;99.90;;;;;;5000646;28;20579;-68
2021/03/13 10:45:57;;;;;;;6.15;3.90;;;4.30;99.90;;;;;;4999095;28;20137;-68
2021/03/13 10:48:46;;;;;;;7.38;4.20;;;4.20;99.90;;;;;;4998409;28;20437;-67
2021/03/13 10:51:35;;;;;;;8.18;4.60;;;4.20;99.90;;;;;;4989957;28;20040;-67
2021/03/13 10:54:04;;;;;;;9.48;4.00;;;4.20;99.90;;;;;;4999464;28;20030;-67
2021/03/13 10:56:42;;;;;;;6.75;3.88;;;4.10;99.90;;;;;;4993761;28;20038;-68
2021/03/13 10:59:08;;;;;;;9.52;4.88;;;4.10;99.90;;;;;;4998052;28;20626;-67
2021/03/13 11:01:35;;;;;;;7.72;4.35;;;4.00;99.90;;;;;;5000396;28;20038;-68
2021/03/13 11:04:01;;;;;;;6.40;3.60;;;4.00;99.90;;;;;;4997913;28;20084;-67
2021/03/13 11:06:32;;;;;;;6.45;3.80;;;4.00;99.90;;;;;;4997521;28;20034;-67
2021/03/13 11:09:09;;;;;;;7.55;4.22;;;4.00;99.90;;;;;;4999474;28;20056;-70
2021/03/13 11:11:35;;;;;;;8.13;4.35;;;3.90;99.90;;;;;;4997490;28;20033;-67
2021/03/13 11:14:02;;;;;;;5.70;3.45;;;3.90;99.90;;;;;;4999222;28;20022;-67
2021/03/13 11:16:28;;;;;;;5.88;3.13;;;3.90;99.90;;;;;;4998818;28;20041;-67
2021/03/13 11:18:55;;;;;;;5.13;2.75;;;3.80;99.90;;;;;;4997918;28;20164;-68
2021/03/13 11:21:23;;;;;;;5.18;2.67;;;3.80;99.90;;;;;;4999625;28;20029;-67
2021/03/13 11:23:49;;;;;;;5.68;2.58;;;3.70;99.90;;;;;;4999230;28;20424;-68
2021/03/13 11:26:20;;;;;;;3.15;1.83;;;3.60;99.90;;;;;;4971600;28;20053;-68
2021/03/13 11:28:47;;;;;;;3.75;2.00;;;3.40;99.90;;;;;;4997743;28;20818;-68
2021/03/13 11:31:13;;;;;;;3.88;1.65;;;3.30;99.90;;;;;;4999267;28;20042;-68
2021/03/13 11:33:39;;;;;;;4.57;2.20;;;3.20;99.90;;;;;;4998684;28;20029;-68
2021/03/13 11:36:06;;;;;;;5.00;2.20;;;3.10;99.90;;;;;;4999721;28;20080;-68
2021/03/13 11:38:33;;;;;;;3.78;1.92;;;3.20;99.90;;;;;;4996548;28;20931;-68
2021/03/13 11:41:02;;;;;;;3.55;2.05;;;3.10;99.90;;;;;;4994297;28;20045;-68
2021/03/13 11:43:32;;;;;;;3.28;2.05;;;2.90;99.90;;;;;;4999002;28;20870;-67
2021/03/13 11:45:58;;;;;;;3.22;1.88;;;2.90;99.90;;;;;;4998950;28;20188;-68
2021/03/13 11:48:24;;;;;;;2.47;1.65;;;2.80;99.90;;;;;;4998228;28;20084;-67
2021/03/13 11:50:50;;;;;;;4.30;2.20;;;2.70;99.90;;;;;;4999752;28;20432;-68
2021/03/13 11:53:18;;;;;;;5.05;1.50;;;2.60;99.90;;;;;;4996664;28;20549;-68
2021/03/13 11:55:45;;;;;;;4.47;1.40;;;2.70;99.90;;;;;;4994672;28;20034;-68
2021/03/13 11:58:11;;;;;;;2.55;1.67;;;2.50;99.90;;;;;;4997138;28;20057;-68
2021/03/13 12:00:38;;;;;;;2.97;1.80;;;2.60;99.90;;;;;;4994172;28;20045;-68
2021/03/13 12:03:04;;;;;;;3.78;1.70;;;2.50;99.90;;;;;;4996564;28;20025;-68
2021/03/13 12:05:30;;;;;;;3.85;2.00;;;2.50;99.90;;;;;;4998163;28;20140;-69
2021/03/13 12:07:56;;;;;;;2.30;1.25;;;2.50;99.90;;;;;;4997486;28;20034;-68
2021/03/13 12:10:22;;;;;;;3.63;2.08;;;2.50;99.90;;;;;;4995777;28;20057;-65
2021/03/13 12:12:48;;;;;;;2.78;1.88;;;2.40;99.90;;;;;;4993002;28;20034;-66
2021/03/13 12:15:14;;;;;;;3.35;1.88;;;2.30;99.90;;;;;;4993870;28;20041;-63
2021/03/13 12:17:40;;;;;;;2.50;1.73;;;2.20;99.90;;;;;;4996614;28;20032;-63
2021/03/13 12:20:08;;;;;;;2.85;2.08;;;2.10;99.90;;;;;;4999494;28;20038;-63
2021/03/13 12:22:35;;;;;;;3.33;2.08;;;2.10;99.90;;;;;;4999362;28;20831;-63
2021/03/13 12:25:03;;;;;;;3.88;2.40;;;2.10;99.90;;;;;;4998792;28;20493;-63
2021/03/13 12:27:29;;;;;;;2.92;1.85;;;2.10;99.90;;;;;;4991941;28;20042;-63
2021/03/13 12:29:55;;;;;;;3.20;1.98;;;2.10;99.90;;;;;;4991957;28;20575;-65
2021/03/13 12:32:21;;;;;;;3.05;1.60;;;2.20;99.90;;;;;;4991171;28;20029;-65
2021/03/13 12:34:47;;;;;;;2.95;1.60;;;2.40;99.90;;;;;;4996323;28;20038;-65
2021/03/13 12:37:13;;;;;;;2.85;1.73;;;2.50;99.90;;;;;;4996356;28;20587;-65
2021/03/13 12:39:39;;;;;;;1.95;1.17;;;2.50;99.90;;;;;;4999287;28;20418;-65
2021/03/13 12:42:06;;;;;;;2.17;1.35;;;2.60;99.90;;;;;;4997699;28;20030;-65
2021/03/13 12:44:32;;;;;;;1.98;1.35;;;2.60;99.90;;;;;;4997018;28;20507;-66
2021/03/13 12:46:58;;;;;;;3.13;1.10;;;2.60;99.90;;;;;;4988600;28;20113;-70
2021/03/13 12:49:24;;;;;;;4.00;1.60;;;2.50;99.90;;;;;;4997161;28;20033;-71
2021/03/13 12:51:50;;;;;;;1.92;1.17;;;2.40;99.90;;;;;;4996989;28;20041;-70
2021/03/13 12:54:16;;;;;;;2.10;0.95;;;2.40;99.90;;;;;;4996052;28;20057;-71
2021/03/13 12:56:41;;;;;;;2.75;1.42;;;2.30;99.90;;;;;;4996896;28;20030;-70